Terminal Aerodrome Forecast
Issued by NWS Austin/San Antonio, TX

Home | Current Version | Previous Version | Text Only | Print | Product List | Glossary On
Versions: 1 2 3 4 5 6 7 8 9 10 11 12 13 14 15 16 17
000
FTUS44 KEWX 052344
TAFDRT
TAF
KDRT 052344Z 0600/0624 14011KT P6SM BKN025
     FM060400 12012KT P6SM BKN015 BKN035
     FM060600 11010KT P6SM OVC007
     FM061700 13012KT P6SM OVC012
     FM061900 14013KT P6SM BKN025 BKN050
     FM062200 15015KT P6SM BKN040=

USA.gov is the U.S. government's official web portal to all federal, state and local government web resources and services.